Time;durP1;ratioP1;P1;durP2;ratioP2;P2;SDS_P1;SDS_P2;PMS_P1;PMS_P2;Temp;Humidity;BMP_temperature;BMP_pressure;BME280_temperature;BME280_humidity;BME280_pressure;Samples;Min_cycle;Max_cycle;Signal;HPM_P1;HPM_P2
2023/11/28 00:01:46;;;;;;;;;;;;;;;;;;5076366;28;20007;-77
2023/11/28 00:04:12;;;;;;;;;;;;;;;;;;5075837;28;19916;-77
2023/11/28 00:06:38;;;;;;;;;;;;;;;;;;5075937;28;19915;-77
2023/11/28 00:09:04;;;;;;;;;;;;;;;;;;5076366;28;20304;-77
2023/11/28 00:11:30;;;;;;;;;;;;;;;;;;5076151;28;20330;-77
2023/11/28 00:13:56;;;;;;;;;;;;;;;;;;5075754;28;20311;-77
2023/11/28 00:16:22;;;;;;;;;;;;;;;;;;5076138;28;20284;-77
2023/11/28 00:18:48;;;;;;;;;;;;;;;;;;5076559;28;20257;-77
2023/11/28 00:21:14;;;;;;;;;;;;;;;;;;5075775;28;20355;-77
2023/11/28 00:23:40;;;;;;;;;;;;;;;;;;5076059;28;19912;-77
2023/11/28 00:26:06;;;;;;;;;;;;;;;;;;5076033;28;19962;-77
2023/11/28 00:28:32;;;;;;;;;;;;;;;;;;5075579;28;19944;-78
2023/11/28 00:30:58;;;;;;;;;;;;;;;;;;5075403;28;20361;-78
2023/11/28 00:33:24;;;;;;;;;;;;;;;;;;5075764;28;19909;-78
2023/11/28 00:35:51;;;;;;;;;;;;;;;;;;5073526;28;19913;-77
2023/11/28 00:38:17;;;;;;;;;;;;;;;;;;5074105;28;19992;-76
2023/11/28 00:40:43;;;;;;;;;;;;;;;;;;5075124;28;19948;-77
2023/11/28 00:43:09;;;;;;;;;;;;;;;;;;5075466;28;19909;-77
2023/11/28 00:45:35;;;;;;;;;;;;;;;;;;5075412;28;20265;-78
2023/11/28 00:48:00;;;;;;;;;;;;;;;;;;5075023;28;20284;-77
2023/11/28 00:50:26;;;;;;;;;;;;;;;;;;5075247;28;20393;-77
2023/11/28 00:52:52;;;;;;;;;;;;;;;;;;5075360;28;19908;-77
2023/11/28 00:55:18;;;;;;;;;;;;;;;;;;5074863;28;19962;-77
2023/11/28 00:57:44;;;;;;;;;;;;;;;;;;5075272;28;19908;-77
2023/11/28 01:00:10;;;;;;;;;;;;;;;;;;5075133;28;20287;-77
2023/11/28 01:02:37;;;;;;;;;;;;;;;;;;5073338;28;20265;-77
2023/11/28 01:05:04;;;;;;;;;;;;;;;;;;5075013;28;20355;-77
2023/11/28 01:07:30;;;;;;;;;;;;;;;;;;5075176;28;19991;-77
2023/11/28 01:09:56;;;;;;;;;;;;;;;;;;5074403;28;19944;-77
2023/11/28 01:12:22;;;;;;;;;;;;;;;;;;5073660;28;20380;-77
2023/11/28 01:14:48;;;;;;;;;;;;;;;;;;5072724;28;19959;-77
2023/11/28 01:17:14;;;;;;;;;;;;;;;;;;5074494;28;19916;-77
2023/11/28 01:19:40;;;;;;;;;;;;;;;;;;5074810;28;19912;-77
2023/11/28 01:22:08;;;;;;;;;;;;;;;;;;5074629;28;20364;-77
2023/11/28 01:24:34;;;;;;;;;;;;;;;;;;5072982;28;20050;-77
2023/11/28 01:27:00;;;;;;;;;;;;;;;;;;5074587;28;20003;-75
2023/11/28 01:29:26;;;;;;;;;;;;;;;;;;5074628;28;20320;-76
2023/11/28 01:31:52;;;;;;;;;;;;;;;;;;5073950;28;19927;-76
2023/11/28 01:34:18;;;;;;;;;;;;;;;;;;5074407;28;19916;-76
2023/11/28 01:36:44;;;;;;;;;;;;;;;;;;5073992;28;19908;-75
2023/11/28 01:39:10;;;;;;;;;;;;;;;;;;5073139;28;20460;-75
2023/11/28 01:41:36;;;;;;;;;;;;;;;;;;5074301;28;19952;-76
2023/11/28 01:44:03;;;;;;;;;;;;;;;;;;5072567;28;19954;-75
2023/11/28 01:46:30;;;;;;;;;;;;;;;;;;5074348;28;20340;-76
2023/11/28 01:48:56;;;;;;;;;;;;;;;;;;5074181;28;19908;-76
2023/11/28 01:51:22;;;;;;;;;;;;;;;;;;5073774;28;19917;-75
2023/11/28 01:53:48;;;;;;;;;;;;;;;;;;5074085;28;20008;-75
2023/11/28 01:56:14;;;;;;;;;;;;;;;;;;5074105;28;19913;-76
2023/11/28 01:58:40;;;;;;;;;;;;;;;;;;5072388;28;19961;-76
2023/11/28 02:01:07;;;;;;;;;;;;;;;;;;5074091;28;19956;-75
2023/11/28 02:03:33;;;;;;;;;;;;;;;;;;5074096;28;19908;-76
2023/11/28 02:05:59;;;;;;;;;;;;;;;;;;5073446;28;20399;-75
2023/11/28 02:08:26;;;;;;;;;;;;;;;;;;5074000;28;19908;-76
2023/11/28 02:10:52;;;;;;;;;;;;;;;;;;5073920;28;19920;-75
2023/11/28 02:13:17;;;;;;;;;;;;;;;;;;5073617;28;19912;-75
2023/11/28 02:15:44;;;;;;;;;;;;;;;;;;5073939;28;19995;-75
2023/11/28 02:18:10;;;;;;;;;;;;;;;;;;5073755;28;20387;-75
2023/11/28 02:20:35;;;;;;;;;;;;;;;;;;5073446;28;19908;-75
2023/11/28 02:23:01;;;;;;;;;;;;;;;;;;5074137;28;20330;-75
2023/11/28 02:25:27;;;;;;;;;;;;;;;;;;5073922;28;20288;-75
2023/11/28 02:27:53;;;;;;;;;;;;;;;;;;5073162;28;20354;-75
2023/11/28 02:30:19;;;;;;;;;;;;;;;;;;5073412;28;19920;-75
2023/11/28 02:32:45;;;;;;;;;;;;;;;;;;5073768;28;19915;-76
2023/11/28 02:35:11;;;;;;;;;;;;;;;;;;5073300;28;19951;-76
2023/11/28 02:37:37;;;;;;;;;;;;;;;;;;5072249;28;19908;-76
2023/11/28 02:40:03;;;;;;;;;;;;;;;;;;5073119;28;19970;-75
2023/11/28 02:42:29;;;;;;;;;;;;;;;;;;5072486;28;20044;-76
2023/11/28 02:44:55;;;;;;;;;;;;;;;;;;5073703;28;20412;-75
2023/11/28 02:47:21;;;;;;;;;;;;;;;;;;5072304;28;20064;-75
2023/11/28 02:49:47;;;;;;;;;;;;;;;;;;5073597;28;20296;-75
2023/11/28 02:52:13;;;;;;;;;;;;;;;;;;5073600;28;19956;-75
2023/11/28 02:54:40;;;;;;;;;;;;;;;;;;5073178;28;19916;-76
2023/11/28 02:57:06;;;;;;;;;;;;;;;;;;5073548;28;19912;-75
2023/11/28 02:59:32;;;;;;;;;;;;;;;;;;5073614;28;19916;-76
2023/11/28 03:01:58;;;;;;;;;;;;;;;;;;5073104;28;19912;-75
2023/11/28 03:04:24;;;;;;;;;;;;;;;;;;5073705;28;19909;-75
2023/11/28 03:06:50;;;;;;;;;;;;;;;;;;5073496;28;19919;-75
2023/11/28 03:09:16;;;;;;;;;;;;;;;;;;5073034;28;19912;-75
2023/11/28 03:11:42;;;;;;;;;;;;;;;;;;5073307;28;19917;-76
2023/11/28 03:14:08;;;;;;;;;;;;;;;;;;5073383;28;19936;-75
2023/11/28 03:16:34;;;;;;;;;;;;;;;;;;5071699;28;19909;-75
2023/11/28 03:19:00;;;;;;;;;;;;;;;;;;5073318;28;19920;-75
2023/11/28 03:21:25;;;;;;;;;;;;;;;;;;5073357;28;19952;-76
2023/11/28 03:23:51;;;;;;;;;;;;;;;;;;5072916;28;19915;-75
2023/11/28 03:26:17;;;;;;;;;;;;;;;;;;5073465;28;19908;-75
2023/11/28 03:28:43;;;;;;;;;;;;;;;;;;5073285;28;19951;-75
2023/11/28 03:31:09;;;;;;;;;;;;;;;;;;5072579;28;19932;-76
2023/11/28 03:33:35;;;;;;;;;;;;;;;;;;5073569;28;19909;-75
2023/11/28 03:36:02;;;;;;;;;;;;;;;;;;5073168;28;20272;-76
2023/11/28 03:38:28;;;;;;;;;;;;;;;;;;5073873;28;20429;-76
2023/11/28 03:40:54;;;;;;;;;;;;;;;;;;5076705;28;19908;-75
2023/11/28 03:43:20;;;;;;;;;;;;;;;;;;5076398;28;19999;-76
2023/11/28 03:45:46;;;;;;;;;;;;;;;;;;5076671;28;19915;-75
2023/11/28 03:48:12;;;;;;;;;;;;;;;;;;5076626;28;19947;-75
2023/11/28 03:50:38;;;;;;;;;;;;;;;;;;5076105;28;19916;-76
2023/11/28 03:53:04;;;;;;;;;;;;;;;;;;5076806;28;19917;-75
2023/11/28 03:55:30;;;;;;;;;;;;;;;;;;5076601;28;19919;-76
2023/11/28 03:57:56;;;;;;;;;;;;;;;;;;5074977;28;19999;-76
2023/11/28 04:00:22;;;;;;;;;;;;;;;;;;5075252;28;19909;-76
2023/11/28 04:02:48;;;;;;;;;;;;;;;;;;5076541;28;20372;-76
2023/11/28 04:05:14;;;;;;;;;;;;;;;;;;5076021;28;19909;-76
2023/11/28 04:07:40;;;;;;;;;;;;;;;;;;5076376;28;20345;-76
2023/11/28 04:10:06;;;;;;;;;;;;;;;;;;5074987;28;19913;-76
2023/11/28 04:12:32;;;;;;;;;;;;;;;;;;5076124;28;19967;-77
2023/11/28 04:14:58;;;;;;;;;;;;;;;;;;5076173;28;19908;-75
2023/11/28 04:17:24;;;;;;;;;;;;;;;;;;5076284;28;19909;-75
2023/11/28 04:19:50;;;;;;;;;;;;;;;;;;5075705;28;19912;-75
2023/11/28 04:22:16;;;;;;;;;;;;;;;;;;5076333;28;19909;-75
2023/11/28 04:24:42;;;;;;;;;;;;;;;;;;5076063;28;19916;-75
2023/11/28 04:27:08;;;;;;;;;;;;;;;;;;5075551;28;19908;-75
2023/11/28 04:29:34;;;;;;;;;;;;;;;;;;5074665;28;20001;-76
2023/11/28 04:32:01;;;;;;;;;;;;;;;;;;5075677;28;19982;-76
2023/11/28 04:34:27;;;;;;;;;;;;;;;;;;5075345;28;19916;-76
2023/11/28 04:36:53;;;;;;;;;;;;;;;;;;5075902;28;19908;-76
2023/11/28 04:39:19;;;;;;;;;;;;;;;;;;5074428;28;20356;-76
2023/11/28 04:41:45;;;;;;;;;;;;;;;;;;5074039;28;20368;-76
2023/11/28 04:44:12;;;;;;;;;;;;;;;;;;5075525;28;20016;-76
2023/11/28 04:46:38;;;;;;;;;;;;;;;;;;5075156;28;19962;-76
2023/11/28 04:49:04;;;;;;;;;;;;;;;;;;5075495;28;19913;-75
2023/11/28 04:51:30;;;;;;;;;;;;;;;;;;5074156;28;19917;-76
2023/11/28 04:53:56;;;;;;;;;;;;;;;;;;5075093;28;19947;-76
2023/11/28 04:56:23;;;;;;;;;;;;;;;;;;5075242;28;19931;-76
2023/11/28 04:58:49;;;;;;;;;;;;;;;;;;5075754;28;20376;-76
2023/11/28 05:01:15;;;;;;;;;;;;;;;;;;5074829;28;20417;-76
2023/11/28 05:03:41;;;;;;;;;;;;;;;;;;5073982;28;19908;-76
2023/11/28 05:06:06;;;;;;;;;;;;;;;;;;5075218;28;19955;-76
2023/11/28 05:08:33;;;;;;;;;;;;;;;;;;5074733;28;19915;-76
2023/11/28 05:11:04;;;;;;;;;;;;;;;;;;5075192;28;20392;-76
2023/11/28 05:13:30;;;;;;;;;;;;;;;;;;5075091;28;19913;-76
2023/11/28 05:15:56;;;;;;;;;;;;;;;;;;5074476;28;19954;-76
2023/11/28 05:18:21;;;;;;;;;;;;;;;;;;5074879;28;20323;-76
2023/11/28 05:20:47;;;;;;;;;;;;;;;;;;5074798;28;19908;-75
2023/11/28 05:23:13;;;;;;;;;;;;;;;;;;5074352;28;19936;-75
2023/11/28 05:25:39;;;;;;;;;;;;;;;;;;5074636;28;19912;-75
2023/11/28 05:28:05;;;;;;;;;;;;;;;;;;5073270;28;19943;-76
2023/11/28 05:30:31;;;;;;;;;;;;;;;;;;5074053;28;19927;-76
2023/11/28 05:32:57;;;;;;;;;;;;;;;;;;5074736;28;19916;-76
2023/11/28 05:35:23;;;;;;;;;;;;;;;;;;5072825;28;19908;-76
2023/11/28 05:37:49;;;;;;;;;;;;;;;;;;5072864;28;19911;-76
2023/11/28 05:40:15;;;;;;;;;;;;;;;;;;5074470;28;20479;-76
2023/11/28 05:42:41;;;;;;;;;;;;;;;;;;5072145;28;19909;-76
2023/11/28 05:45:07;;;;;;;;;;;;;;;;;;5073941;28;19931;-76
2023/11/28 05:47:33;;;;;;;;;;;;;;;;;;5074390;28;19913;-75
2023/11/28 05:50:00;;;;;;;;;;;;;;;;;;5074020;28;19909;-75
2023/11/28 05:52:26;;;;;;;;;;;;;;;;;;5072296;28;20047;-75
2023/11/28 05:54:52;;;;;;;;;;;;;;;;;;5072248;28;20411;-76
2023/11/28 05:57:18;;;;;;;;;;;;;;;;;;5071818;28;20330;-76
2023/11/28 05:59:44;;;;;;;;;;;;;;;;;;5072236;28;20387;-76
2023/11/28 06:02:10;;;;;;;;;;;;;;;;;;5071894;28;19909;-76
2023/11/28 06:04:36;;;;;;;;;;;;;;;;;;5072113;28;19909;-75
2023/11/28 06:07:02;;;;;;;;;;;;;;;;;;5073377;28;19919;-75
2023/11/28 06:09:28;;;;;;;;;;;;;;;;;;5074033;28;19912;-75
2023/11/28 06:11:54;;;;;;;;;;;;;;;;;;5073658;28;20407;-76
2023/11/28 06:14:20;;;;;;;;;;;;;;;;;;5074092;28;19910;-75
2023/11/28 06:16:46;;;;;;;;;;;;;;;;;;5073847;28;20012;-75
2023/11/28 06:19:12;;;;;;;;;;;;;;;;;;5072196;28;19908;-75
2023/11/28 06:21:38;;;;;;;;;;;;;;;;;;5073493;28;20284;-75
2023/11/28 06:24:04;;;;;;;;;;;;;;;;;;5070550;28;19909;-75
2023/11/28 06:26:30;;;;;;;;;;;;;;;;;;5072073;28;19935;-76
2023/11/28 06:28:56;;;;;;;;;;;;;;;;;;5066714;28;19913;-78
2023/11/28 06:31:22;;;;;;;;;;;;;;;;;;5068023;28;19920;-79
2023/11/28 06:33:48;;;;;;;;;;;;;;;;;;5069865;28;20003;-71
2023/11/28 06:36:15;;;;;;;;;;;;;;;;;;5068822;28;19913;-69
2023/11/28 06:38:41;;;;;;;;;;;;;;;;;;5064270;28;19912;-72
2023/11/28 06:41:10;;;;;;;;;;;;;;;;;;5066989;28;19983;-69
2023/11/28 06:43:36;;;;;;;;;;;;;;;;;;5069627;28;20006;-72
2023/11/28 06:46:02;;;;;;;;;;;;;;;;;;5068644;28;19978;-72
2023/11/28 06:48:28;;;;;;;;;;;;;;;;;;5050630;28;19909;-74
2023/11/28 06:50:54;;;;;;;;;;;;;;;;;;5059979;28;19921;-71
2023/11/28 06:53:20;;;;;;;;;;;;;;;;;;5069855;28;19919;-70
2023/11/28 06:55:46;;;;;;;;;;;;;;;;;;5072547;28;19909;-70
2023/11/28 06:58:12;;;;;;;;;;;;;;;;;;5073006;28;20319;-69
2023/11/28 07:00:38;;;;;;;;;;;;;;;;;;5073381;28;20318;-69
2023/11/28 07:03:04;;;;;;;;;;;;;;;;;;5072779;28;19908;-70
2023/11/28 07:05:31;;;;;;;;;;;;;;;;;;5073293;28;19916;-69
2023/11/28 07:07:59;;;;;;;;;;;;;;;;;;5072989;28;19909;-68
2023/11/28 07:10:25;;;;;;;;;;;;;;;;;;5071425;28;19920;-70
2023/11/28 07:12:51;;;;;;;;;;;;;;;;;;5072590;28;20269;-70
2023/11/28 07:15:17;;;;;;;;;;;;;;;;;;5075384;28;19916;-70
2023/11/28 07:17:43;;;;;;;;;;;;;;;;;;5076253;28;19908;-69
2023/11/28 07:20:09;;;;;;;;;;;;;;;;;;5076690;28;19962;-69
2023/11/28 07:22:36;;;;;;;;;;;;;;;;;;5076766;28;19914;-72
2023/11/28 07:25:03;;;;;;;;;;;;;;;;;;5076735;28;20303;-70
2023/11/28 07:27:29;;;;;;;;;;;;;;;;;;5076829;28;19912;-68
2023/11/28 07:29:55;;;;;;;;;;;;;;;;;;5076611;28;19931;-69
2023/11/28 07:32:23;;;;;;;;;;;;;;;;;;5075682;28;19917;-69
2023/11/28 07:34:49;;;;;;;;;;;;;;;;;;5074887;28;19913;-69
2023/11/28 07:37:15;;;;;;;;;;;;;;;;;;5076420;28;19909;-69
2023/11/28 07:39:41;;;;;;;;;;;;;;;;;;5074689;28;19962;-67
2023/11/28 07:42:08;;;;;;;;;;;;;;;;;;5076649;28;20286;-67
2023/11/28 07:44:34;;;;;;;;;;;;;;;;;;5076181;28;19909;-68
2023/11/28 07:47:01;;;;;;;;;;;;;;;;;;5076226;28;19913;-67
2023/11/28 07:49:26;;;;;;;;;;;;;;;;;;5076468;28;20042;-68
2023/11/28 07:51:58;;;;;;;;;;;;;;;;;;5075835;28;19923;-67
2023/11/28 07:54:24;;;;;;;;;;;;;;;;;;5076618;28;20272;-67
2023/11/28 07:56:52;;;;;;;;;;;;;;;;;;5076019;28;19915;-69
2023/11/28 07:59:18;;;;;;;;;;;;;;;;;;5074651;28;20301;-69
2023/11/28 08:01:44;;;;;;;;;;;;;;;;;;5074473;28;19915;-69
2023/11/28 08:04:10;;;;;;;;;;;;;;;;;;5076589;28;20368;-68
2023/11/28 08:06:36;;;;;;;;;;;;;;;;;;5074215;28;20291;-68
2023/11/28 08:09:02;;;;;;;;;;;;;;;;;;5075625;28;19908;-69
2023/11/28 08:11:28;;;;;;;;;;;;;;;;;;5075327;28;19924;-69
2023/11/28 08:13:54;;;;;;;;;;;;;;;;;;5075307;28;19909;-67
2023/11/28 08:16:23;;;;;;;;;;;;;;;;;;5074593;28;19957;-70
2023/11/28 08:18:49;;;;;;;;;;;;;;;;;;5075005;28;19951;-71
2023/11/28 08:21:15;;;;;;;;;;;;;;;;;;5074425;28;19909;-68
2023/11/28 08:23:41;;;;;;;;;;;;;;;;;;5075032;28;19909;-70
2023/11/28 08:26:07;;;;;;;;;;;;;;;;;;5075215;28;19908;-73
2023/11/28 08:28:35;;;;;;;;;;;;;;;;;;5074996;28;19912;-75
2023/11/28 08:31:01;;;;;;;;;;;;;;;;;;5074000;28;20380;-79
2023/11/28 08:33:27;;;;;;;;;;;;;;;;;;5075672;28;19954;-73
2023/11/28 08:35:53;;;;;;;;;;;;;;;;;;5074035;28;19915;-75
2023/11/28 08:38:20;;;;;;;;;;;;;;;;;;5074041;28;20510;-71
2023/11/28 08:40:46;;;;;;;;;;;;;;;;;;5075477;28;20346;-69
2023/11/28 08:43:12;;;;;;;;;;;;;;;;;;5076039;28;19958;-69
2023/11/28 08:48:23;;;;;;;;;;;;;;;;;;5075274;28;19942;-71
2023/11/28 08:50:49;;;;;;;;;;;;;;;;;;5073747;28;20306;-68
2023/11/28 08:53:15;;;;;;;;;;;;;;;;;;5075249;28;19913;-73
2023/11/28 08:58:26;;;;;;;;;;;;;;;;;;5074394;28;19955;-70
2023/11/28 09:00:55;;;;;;;;;;;;;;;;;;5074542;28;19909;-70
2023/11/28 09:03:21;;;;;;;;;;;;;;;;;;5073415;28;19908;-68
2023/11/28 09:05:47;;;;;;;;;;;;;;;;;;5073525;28;19908;-69
2023/11/28 09:08:13;;;;;;;;;;;;;;;;;;5074656;28;20359;-68
2023/11/28 09:10:39;;;;;;;;;;;;;;;;;;5075233;28;20367;-69
2023/11/28 09:13:05;;;;;;;;;;;;;;;;;;5073521;28;19919;-68
2023/11/28 09:15:31;;;;;;;;;;;;;;;;;;5073429;28;19909;-68
2023/11/28 09:17:57;;;;;;;;;;;;;;;;;;5073402;28;19908;-68
2023/11/28 09:20:23;;;;;;;;;;;;;;;;;;5074839;28;19909;-68
2023/11/28 09:22:49;;;;;;;;;;;;;;;;;;5072986;28;19958;-73
2023/11/28 09:25:16;;;;;;;;;;;;;;;;;;5072916;28;20343;-72
2023/11/28 09:27:42;;;;;;;;;;;;;;;;;;5074481;28;19999;-75
2023/11/28 09:30:08;;;;;;;;;;;;;;;;;;5073791;28;19909;-70
2023/11/28 09:32:34;;;;;;;;;;;;;;;;;;5073894;28;19923;-68
2023/11/28 09:35:00;;;;;;;;;;;;;;;;;;5072840;28;19918;-67
2023/11/28 09:37:26;;;;;;;;;;;;;;;;;;5073422;28;20393;-69
2023/11/28 09:39:52;;;;;;;;;;;;;;;;;;5074679;28;19909;-70
2023/11/28 09:42:18;;;;;;;;;;;;;;;;;;5074102;28;19909;-70
2023/11/28 09:44:45;;;;;;;;;;;;;;;;;;5074096;28;19915;-67
2023/11/28 09:47:11;;;;;;;;;;;;;;;;;;5072673;28;20003;-67
2023/11/28 09:49:37;;;;;;;;;;;;;;;;;;5072517;28;19997;-68
2023/11/28 09:52:03;;;;;;;;;;;;;;;;;;5072524;28;19990;-68
2023/11/28 09:54:31;;;;;;;;;;;;;;;;;;5074126;28;20078;-67
2023/11/28 09:56:59;;;;;;;;;;;;;;;;;;5074075;28;19964;-69
2023/11/28 09:59:31;;;;;;;;;;;;;;;;;;5074104;28;19984;-68
2023/11/28 10:01:57;;;;;;;;;;;;;;;;;;5073708;28;20310;-69
2023/11/28 10:04:23;;;;;;;;;;;;;;;;;;5072228;28;19908;-66
2023/11/28 10:06:50;;;;;;;;;;;;;;;;;;5073977;28;19908;-68
2023/11/28 10:09:16;;;;;;;;;;;;;;;;;;5073840;28;19996;-68
2023/11/28 10:11:42;;;;;;;;;;;;;;;;;;5073639;28;19952;-70
2023/11/28 10:14:08;;;;;;;;;;;;;;;;;;5073525;28;19947;-69
2023/11/28 10:16:34;;;;;;;;;;;;;;;;;;5072288;28;20253;-69
2023/11/28 10:19:00;;;;;;;;;;;;;;;;;;5072493;28;19939;-67
2023/11/28 10:21:26;;;;;;;;;;;;;;;;;;5072722;28;20280;-70
2023/11/28 10:23:52;;;;;;;;;;;;;;;;;;5074195;28;19915;-71
2023/11/28 10:26:18;;;;;;;;;;;;;;;;;;5071997;28;20342;-70
2023/11/28 10:28:44;;;;;;;;;;;;;;;;;;5073354;28;19931;-70
2023/11/28 10:31:14;;;;;;;;;;;;;;;;;;5071363;28;20045;-70
2023/11/28 10:33:40;;;;;;;;;;;;;;;;;;5072918;28;20373;-73
2023/11/28 10:36:06;;;;;;;;;;;;;;;;;;5073066;28;19915;-68
2023/11/28 10:38:32;;;;;;;;;;;;;;;;;;5073632;28;19913;-69
2023/11/28 10:40:59;;;;;;;;;;;;;;;;;;5073509;28;19995;-68
2023/11/28 10:43:26;;;;;;;;;;;;;;;;;;5073246;28;19923;-68
2023/11/28 10:45:52;;;;;;;;;;;;;;;;;;5072776;28;19916;-68
2023/11/28 10:48:18;;;;;;;;;;;;;;;;;;5075369;28;19992;-72
2023/11/28 10:50:44;;;;;;;;;;;;;;;;;;5076999;28;19951;-71
2023/11/28 10:53:10;;;;;;;;;;;;;;;;;;5076773;28;19912;-70
2023/11/28 10:55:37;;;;;;;;;;;;;;;;;;5076679;28;19909;-69
2023/11/28 10:58:03;;;;;;;;;;;;;;;;;;5076896;28;20260;-69
2023/11/28 11:00:29;;;;;;;;;;;;;;;;;;5076087;28;19995;-69
2023/11/28 11:02:55;;;;;;;;;;;;;;;;;;5076764;28;20318;-68
2023/11/28 11:05:21;;;;;;;;;;;;;;;;;;5076983;28;19909;-69
2023/11/28 11:07:47;;;;;;;;;;;;;;;;;;5077270;28;20371;-69
2023/11/28 11:10:13;;;;;;;;;;;;;;;;;;5076887;28;20319;-69
2023/11/28 11:12:39;;;;;;;;;;;;;;;;;;5076614;28;19916;-72
2023/11/28 11:15:06;;;;;;;;;;;;;;;;;;5077135;28;19912;-70
2023/11/28 11:17:34;;;;;;;;;;;;;;;;;;5077124;28;19955;-73
2023/11/28 11:20:00;;;;;;;;;;;;;;;;;;5079199;28;19912;-69
2023/11/28 11:22:26;;;;;;;;;;;;;;;;;;5075673;28;19966;-71
2023/11/28 11:24:52;;;;;;;;;;;;;;;;;;5075671;28;19917;-70
2023/11/28 11:27:18;;;;;;;;;;;;;;;;;;5075457;28;19909;-70
2023/11/28 11:29:47;;;;;;;;;;;;;;;;;;5076653;28;20355;-73
2023/11/28 11:32:13;;;;;;;;;;;;;;;;;;5074846;28;20046;-73
2023/11/28 11:34:38;;;;;;;;;;;;;;;;;;5075085;28;19925;-73
2023/11/28 11:37:05;;;;;;;;;;;;;;;;;;5076302;28;19913;-68
2023/11/28 11:39:31;;;;;;;;;;;;;;;;;;5074971;28;19908;-70
2023/11/28 11:41:57;;;;;;;;;;;;;;;;;;5076555;28;19912;-70
2023/11/28 11:44:23;;;;;;;;;;;;;;;;;;5075677;28;19908;-69
2023/11/28 11:46:49;;;;;;;;;;;;;;;;;;5076261;28;20003;-70
2023/11/28 11:49:15;;;;;;;;;;;;;;;;;;5076282;28;20475;-69
2023/11/28 11:51:43;;;;;;;;;;;;;;;;;;5076287;28;20003;-69
2023/11/28 11:54:10;;;;;;;;;;;;;;;;;;5075267;28;19912;-68
2023/11/28 11:56:35;;;;;;;;;;;;;;;;;;5075141;28;19915;-69
2023/11/28 11:59:01;;;;;;;;;;;;;;;;;;5075445;28;20276;-69
2023/11/28 12:01:27;;;;;;;;;;;;;;;;;;5076495;28;19912;-69
2023/11/28 12:03:53;;;;;;;;;;;;;;;;;;5075007;28;19993;-67
2023/11/28 12:06:19;;;;;;;;;;;;;;;;;;5076408;28;19919;-69
2023/11/28 12:08:45;;;;;;;;;;;;;;;;;;5075772;28;19909;-70
2023/11/28 12:11:11;;;;;;;;;;;;;;;;;;5075568;28;19919;-68
2023/11/28 12:13:37;;;;;;;;;;;;;;;;;;5076105;28;19913;-71
2023/11/28 12:16:03;;;;;;;;;;;;;;;;;;5075394;28;19955;-70
2023/11/28 12:18:30;;;;;;;;;;;;;;;;;;5075636;28;19909;-70
2023/11/28 12:20:56;;;;;;;;;;;;;;;;;;5076031;28;19912;-69
2023/11/28 12:23:22;;;;;;;;;;;;;;;;;;5074432;28;20378;-69
2023/11/28 12:25:48;;;;;;;;;;;;;;;;;;5076122;28;19915;-70
2023/11/28 12:28:14;;;;;;;;;;;;;;;;;;5074183;28;19908;-71
2023/11/28 12:30:43;;;;;;;;;;;;;;;;;;5075396;28;19970;-68
2023/11/28 12:33:14;;;;;;;;;;;;;;;;;;5074329;28;19912;-70
2023/11/28 12:35:40;;;;;;;;;;;;;;;;;;5076012;28;19916;-69
2023/11/28 12:38:06;;;;;;;;;;;;;;;;;;5075404;28;19920;-73
2023/11/28 12:40:32;;;;;;;;;;;;;;;;;;5075497;28;20340;-72
2023/11/28 12:43:01;;;;;;;;;;;;;;;;;;5075213;28;20364;-69
2023/11/28 12:45:30;;;;;;;;;;;;;;;;;;5075703;28;20304;-70
2023/11/28 12:47:56;;;;;;;;;;;;;;;;;;5075397;28;19916;-71
2023/11/28 12:50:22;;;;;;;;;;;;;;;;;;5073472;28;19909;-71
2023/11/28 12:52:48;;;;;;;;;;;;;;;;;;5074029;28;19916;-71
2023/11/28 12:55:15;;;;;;;;;;;;;;;;;;5074017;28;19908;-71
2023/11/28 12:57:41;;;;;;;;;;;;;;;;;;5075207;28;19908;-72
2023/11/28 13:00:07;;;;;;;;;;;;;;;;;;5075061;28;19908;-71
2023/11/28 13:02:33;;;;;;;;;;;;;;;;;;5075116;28;19945;-71
2023/11/28 13:04:59;;;;;;;;;;;;;;;;;;5073513;28;19909;-70
2023/11/28 13:07:25;;;;;;;;;;;;;;;;;;5074636;28;19909;-72
2023/11/28 13:09:59;;;;;;;;;;;;;;;;;;5073263;28;19908;-74
2023/11/28 13:12:25;;;;;;;;;;;;;;;;;;5072479;28;20406;-72
2023/11/28 13:14:51;;;;;;;;;;;;;;;;;;5074619;28;19936;-73
2023/11/28 13:17:17;;;;;;;;;;;;;;;;;;5073350;28;19908;-75
2023/11/28 13:19:43;;;;;;;;;;;;;;;;;;5074706;28;20376;-73
2023/11/28 13:22:11;;;;;;;;;;;;;;;;;;5073965;28;19915;-73
2023/11/28 13:24:37;;;;;;;;;;;;;;;;;;5073253;28;19958;-72
2023/11/28 13:27:04;;;;;;;;;;;;;;;;;;5074435;28;20364;-71
2023/11/28 13:29:30;;;;;;;;;;;;;;;;;;5074593;28;19920;-72
2023/11/28 13:31:58;;;;;;;;;;;;;;;;;;5072867;28;20296;-74
2023/11/28 13:34:24;;;;;;;;;;;;;;;;;;5074560;28;19908;-71
2023/11/28 13:36:50;;;;;;;;;;;;;;;;;;5074114;28;19912;-72
2023/11/28 13:39:16;;;;;;;;;;;;;;;;;;5074210;28;19909;-71
2023/11/28 13:41:42;;;;;;;;;;;;;;;;;;5074155;28;19915;-72
2023/11/28 13:44:08;;;;;;;;;;;;;;;;;;5074350;28;19947;-72
2023/11/28 13:46:34;;;;;;;;;;;;;;;;;;5074370;28;19908;-72
2023/11/28 13:49:02;;;;;;;;;;;;;;;;;;5073475;28;19913;-72
2023/11/28 13:51:28;;;;;;;;;;;;;;;;;;5074105;28;19958;-72
2023/11/28 13:53:55;;;;;;;;;;;;;;;;;;5072751;28;19909;-71
2023/11/28 13:56:21;;;;;;;;;;;;;;;;;;5074386;28;19908;-72
2023/11/28 13:58:47;;;;;;;;;;;;;;;;;;5074133;28;19961;-73
2023/11/28 14:01:13;;;;;;;;;;;;;;;;;;5074189;28;19908;-73
2023/11/28 14:03:39;;;;;;;;;;;;;;;;;;5074073;28;19937;-76
2023/11/28 14:06:05;;;;;;;;;;;;;;;;;;5074065;28;19908;-76
2023/11/28 14:08:32;;;;;;;;;;;;;;;;;;5074171;28;19908;-77
2023/11/28 14:10:58;;;;;;;;;;;;;;;;;;5073777;28;20364;-76
2023/11/28 14:13:24;;;;;;;;;;;;;;;;;;5073912;28;19955;-76
2023/11/28 14:15:50;;;;;;;;;;;;;;;;;;5073604;28;19912;-76
2023/11/28 14:18:17;;;;;;;;;;;;;;;;;;5073620;28;19912;-76
2023/11/28 14:20:45;;;;;;;;;;;;;;;;;;5072303;28;19995;-76
2023/11/28 14:23:11;;;;;;;;;;;;;;;;;;5073239;28;20402;-76
2023/11/28 14:25:38;;;;;;;;;;;;;;;;;;5073774;28;19920;-76
2023/11/28 14:28:04;;;;;;;;;;;;;;;;;;5073843;28;19962;-76
2023/11/28 14:30:29;;;;;;;;;;;;;;;;;;5073351;28;19928;-75
2023/11/28 14:32:57;;;;;;;;;;;;;;;;;;5073050;28;20215;-76
2023/11/28 14:35:23;;;;;;;;;;;;;;;;;;5073963;28;20371;-76
2023/11/28 14:37:53;;;;;;;;;;;;;;;;;;5073484;28;19920;-76
2023/11/28 14:40:19;;;;;;;;;;;;;;;;;;5073512;28;19991;-76
2023/11/28 14:42:46;;;;;;;;;;;;;;;;;;5073418;28;20352;-76
2023/11/28 14:45:12;;;;;;;;;;;;;;;;;;5072276;28;20318;-76
2023/11/28 14:47:38;;;;;;;;;;;;;;;;;;5072424;28;19909;-77
2023/11/28 14:50:04;;;;;;;;;;;;;;;;;;5073525;28;19955;-76
2023/11/28 14:52:30;;;;;;;;;;;;;;;;;;5073119;28;19920;-76
2023/11/28 14:54:56;;;;;;;;;;;;;;;;;;5072115;28;19909;-76
2023/11/28 14:57:22;;;;;;;;;;;;;;;;;;5073132;28;19915;-76
2023/11/28 14:59:48;;;;;;;;;;;;;;;;;;5073117;28;19909;-76
2023/11/28 15:02:17;;;;;;;;;;;;;;;;;;5073198;28;19999;-76
2023/11/28 15:04:43;;;;;;;;;;;;;;;;;;5073713;28;19913;-76
2023/11/28 15:07:09;;;;;;;;;;;;;;;;;;5073439;28;19962;-76
2023/11/28 15:09:35;;;;;;;;;;;;;;;;;;5072201;28;19931;-76
2023/11/28 15:12:03;;;;;;;;;;;;;;;;;;5073350;28;19916;-75
2023/11/28 15:14:29;;;;;;;;;;;;;;;;;;5073364;28;19940;-75
2023/11/28 15:16:55;;;;;;;;;;;;;;;;;;5073361;28;19915;-75
2023/11/28 15:19:21;;;;;;;;;;;;;;;;;;5073357;28;19908;-75
2023/11/28 15:21:47;;;;;;;;;;;;;;;;;;5073343;28;19909;-76
2023/11/28 15:24:13;;;;;;;;;;;;;;;;;;5073363;28;19935;-75
2023/11/28 15:26:39;;;;;;;;;;;;;;;;;;5072048;28;19935;-76
2023/11/28 15:29:05;;;;;;;;;;;;;;;;;;5074136;28;20280;-75
2023/11/28 15:31:32;;;;;;;;;;;;;;;;;;5071734;28;19921;-76
2023/11/28 15:34:00;;;;;;;;;;;;;;;;;;5072474;28;19915;-76
2023/11/28 15:36:26;;;;;;;;;;;;;;;;;;5076995;28;20417;-77
2023/11/28 15:38:53;;;;;;;;;;;;;;;;;;5076881;28;19908;-75
2023/11/28 15:41:20;;;;;;;;;;;;;;;;;;5076805;28;19963;-75
2023/11/28 15:43:46;;;;;;;;;;;;;;;;;;5077160;28;19915;-76
2023/11/28 15:46:12;;;;;;;;;;;;;;;;;;5076717;28;19913;-75
2023/11/28 15:48:38;;;;;;;;;;;;;;;;;;5076516;28;19978;-75
2023/11/28 15:51:04;;;;;;;;;;;;;;;;;;5076637;28;19909;-74
2023/11/28 15:53:30;;;;;;;;;;;;;;;;;;5075336;28;19919;-75
2023/11/28 15:55:56;;;;;;;;;;;;;;;;;;5076589;28;19931;-75
2023/11/28 15:58:22;;;;;;;;;;;;;;;;;;5076783;28;19991;-76
2023/11/28 16:00:48;;;;;;;;;;;;;;;;;;5076779;28;19995;-76
2023/11/28 16:03:15;;;;;;;;;;;;;;;;;;5075243;28;19909;-76
2023/11/28 16:05:41;;;;;;;;;;;;;;;;;;5076726;28;19908;-76
2023/11/28 16:08:07;;;;;;;;;;;;;;;;;;5075085;28;19915;-76
2023/11/28 16:10:35;;;;;;;;;;;;;;;;;;5076332;28;19914;-76
2023/11/28 16:13:01;;;;;;;;;;;;;;;;;;5076266;28;19993;-76
2023/11/28 16:15:27;;;;;;;;;;;;;;;;;;5076263;28;20356;-76
2023/11/28 16:17:53;;;;;;;;;;;;;;;;;;5076694;28;20382;-75
2023/11/28 16:20:18;;;;;;;;;;;;;;;;;;5074864;28;19908;-75
2023/11/28 16:22:46;;;;;;;;;;;;;;;;;;5076134;28;19908;-75
2023/11/28 16:25:13;;;;;;;;;;;;;;;;;;5076062;28;19930;-75
2023/11/28 16:27:39;;;;;;;;;;;;;;;;;;5076032;28;20356;-75
2023/11/28 16:30:05;;;;;;;;;;;;;;;;;;5075627;28;20330;-75
2023/11/28 16:32:34;;;;;;;;;;;;;;;;;;5074508;28;19916;-76
2023/11/28 16:34:59;;;;;;;;;;;;;;;;;;5075590;28;19935;-75
2023/11/28 16:37:25;;;;;;;;;;;;;;;;;;5076120;28;20352;-76
2023/11/28 16:39:53;;;;;;;;;;;;;;;;;;5075735;28;20360;-76
2023/11/28 16:42:21;;;;;;;;;;;;;;;;;;5076354;28;19909;-76
2023/11/28 16:44:47;;;;;;;;;;;;;;;;;;5075664;28;19915;-75